sensor_id;sensor_type;location;lat;lon;timestamp;temperature;humidity
73829;SHT30;62176;48.450;-4.466;2022-08-25T00:02:19;19.82;84.88
73829;SHT30;62176;48.450;-4.466;2022-08-25T00:04:45;19.83;84.79
73829;SHT30;62176;48.450;-4.466;2022-08-25T00:07:10;19.86;84.68
73829;SHT30;62176;48.450;-4.466;2022-08-25T00:09:36;19.87;84.79
73829;SHT30;62176;48.450;-4.466;2022-08-25T00:12:03;19.90;84.43
73829;SHT30;62176;48.450;-4.466;2022-08-25T00:14:35;19.92;84.32
73829;SHT30;62176;48.450;-4.466;2022-08-25T00:17:01;19.97;84.32
73829;SHT30;62176;48.450;-4.466;2022-08-25T00:19:30;19.93;84.39
73829;SHT30;62176;48.450;-4.466;2022-08-25T00:21:56;19.93;84.39
73829;SHT30;62176;48.450;-4.466;2022-08-25T00:24:22;19.82;84.72
73829;SHT30;62176;48.450;-4.466;2022-08-25T00:26:51;19.86;84.83
73829;SHT30;62176;48.450;-4.466;2022-08-25T00:29:17;19.90;84.35
73829;SHT30;62176;48.450;-4.466;2022-08-25T00:31:43;19.87;84.42
73829;SHT30;62176;48.450;-4.466;2022-08-25T00:34:16;19.87;84.26
73829;SHT30;62176;48.450;-4.466;2022-08-25T00:36:42;19.87;84.57
73829;SHT30;62176;48.450;-4.466;2022-08-25T00:39:08;19.83;84.62
73829;SHT30;62176;48.450;-4.466;2022-08-25T00:41:36;19.83;84.74
73829;SHT30;62176;48.450;-4.466;2022-08-25T00:44:04;19.86;84.41
73829;SHT30;62176;48.450;-4.466;2022-08-25T00:46:34;19.86;84.55
73829;SHT30;62176;48.450;-4.466;2022-08-25T00:49:03;19.89;84.56
73829;SHT30;62176;48.450;-4.466;2022-08-25T00:52:39;19.83;84.75
73829;SHT30;62176;48.450;-4.466;2022-08-25T00:54:51;19.86;84.38
73829;SHT30;62176;48.450;-4.466;2022-08-25T00:57:20;19.86;84.26
73829;SHT30;62176;48.450;-4.466;2022-08-25T00:59:47;19.87;84.08
73829;SHT30;62176;48.450;-4.466;2022-08-25T01:02:14;19.89;84.16
73829;SHT30;62176;48.450;-4.466;2022-08-25T01:04:41;19.87;84.41
73829;SHT30;62176;48.450;-4.466;2022-08-25T01:07:07;19.86;84.32
73829;SHT30;62176;48.450;-4.466;2022-08-25T01:09:35;19.87;84.20
73829;SHT30;62176;48.450;-4.466;2022-08-25T01:12:00;19.92;84.53
73829;SHT30;62176;48.450;-4.466;2022-08-25T01:14:26;19.89;84.61
73829;SHT30;62176;48.450;-4.466;2022-08-25T01:16:53;19.89;85.84
73829;SHT30;62176;48.450;-4.466;2022-08-25T01:19:19;19.78;86.35
73829;SHT30;62176;48.450;-4.466;2022-08-25T01:21:48;19.57;93.24
73829;SHT30;62176;48.450;-4.466;2022-08-25T01:27:01;19.27;95.67
73829;SHT30;62176;48.450;-4.466;2022-08-25T01:29:28;19.11;96.25
73829;SHT30;62176;48.450;-4.466;2022-08-25T01:31:57;19.04;96.49
73829;SHT30;62176;48.450;-4.466;2022-08-25T01:34:28;18.96;96.50
73829;SHT30;62176;48.450;-4.466;2022-08-25T01:36:55;18.80;96.44
73829;SHT30;62176;48.450;-4.466;2022-08-25T01:39:21;18.73;96.61
73829;SHT30;62176;48.450;-4.466;2022-08-25T01:44:13;18.70;96.72
73829;SHT30;62176;48.450;-4.466;2022-08-25T01:46:39;18.70;96.88
73829;SHT30;62176;48.450;-4.466;2022-08-25T01:49:05;18.71;96.90
73829;SHT30;62176;48.450;-4.466;2022-08-25T01:51:47;18.66;96.77
73829;SHT30;62176;48.450;-4.466;2022-08-25T01:54:15;18.66;96.71
73829;SHT30;62176;48.450;-4.466;2022-08-25T01:56:41;18.70;96.80
73829;SHT30;62176;48.450;-4.466;2022-08-25T01:59:06;18.67;96.70
73829;SHT30;62176;48.450;-4.466;2022-08-25T02:01:31;18.66;96.51
73829;SHT30;62176;48.450;-4.466;2022-08-25T02:03:57;18.63;96.17
73829;SHT30;62176;48.450;-4.466;2022-08-25T02:06:30;18.54;95.97
73829;SHT30;62176;48.450;-4.466;2022-08-25T02:09:11;18.49;96.26
73829;SHT30;62176;48.450;-4.466;2022-08-25T02:11:40;18.47;96.49
73829;SHT30;62176;48.450;-4.466;2022-08-25T02:14:07;18.44;96.33
73829;SHT30;62176;48.450;-4.466;2022-08-25T02:16:35;18.43;96.28
73829;SHT30;62176;48.450;-4.466;2022-08-25T02:19:02;18.40;96.28
73829;SHT30;62176;48.450;-4.466;2022-08-25T02:21:28;18.36;95.75
73829;SHT30;62176;48.450;-4.466;2022-08-25T02:23:54;18.29;95.31
73829;SHT30;62176;48.450;-4.466;2022-08-25T02:26:21;18.22;95.17
73829;SHT30;62176;48.450;-4.466;2022-08-25T02:28:48;18.16;95.19
73829;SHT30;62176;48.450;-4.466;2022-08-25T02:31:14;18.10;95.37
73829;SHT30;62176;48.450;-4.466;2022-08-25T02:33:40;18.08;95.13
73829;SHT30;62176;48.450;-4.466;2022-08-25T02:36:06;18.03;95.15
73829;SHT30;62176;48.450;-4.466;2022-08-25T02:38:31;18.01;95.57
73829;SHT30;62176;48.450;-4.466;2022-08-25T02:40:58;17.95;95.17
73829;SHT30;62176;48.450;-4.466;2022-08-25T02:43:25;17.91;95.14
73829;SHT30;62176;48.450;-4.466;2022-08-25T02:45:52;17.86;95.33
73829;SHT30;62176;48.450;-4.466;2022-08-25T02:48:18;17.86;95.64
73829;SHT30;62176;48.450;-4.466;2022-08-25T02:50:49;17.85;95.91
73829;SHT30;62176;48.450;-4.466;2022-08-25T02:53:17;17.83;95.83
73829;SHT30;62176;48.450;-4.466;2022-08-25T02:55:42;17.82;95.98
73829;SHT30;62176;48.450;-4.466;2022-08-25T02:58:08;17.81;96.08
73829;SHT30;62176;48.450;-4.466;2022-08-25T03:00:35;17.81;96.10
73829;SHT30;62176;48.450;-4.466;2022-08-25T03:03:00;17.81;96.17
73829;SHT30;62176;48.450;-4.466;2022-08-25T03:05:26;17.82;96.11
73829;SHT30;62176;48.450;-4.466;2022-08-25T03:07:51;17.78;96.05
73829;SHT30;62176;48.450;-4.466;2022-08-25T03:10:17;17.77;95.75
73829;SHT30;62176;48.450;-4.466;2022-08-25T03:12:44;17.72;95.65
73829;SHT30;62176;48.450;-4.466;2022-08-25T03:15:12;17.68;95.65
73829;SHT30;62176;48.450;-4.466;2022-08-25T03:17:41;17.71;95.90
73829;SHT30;62176;48.450;-4.466;2022-08-25T03:20:06;17.69;95.65
73829;SHT30;62176;48.450;-4.466;2022-08-25T03:22:32;17.64;95.93
73829;SHT30;62176;48.450;-4.466;2022-08-25T03:24:58;17.64;95.78
73829;SHT30;62176;48.450;-4.466;2022-08-25T03:27:43;17.67;96.16
73829;SHT30;62176;48.450;-4.466;2022-08-25T03:30:09;17.65;95.68
73829;SHT30;62176;48.450;-4.466;2022-08-25T03:32:35;17.61;95.73
73829;SHT30;62176;48.450;-4.466;2022-08-25T03:35:02;17.58;95.55
73829;SHT30;62176;48.450;-4.466;2022-08-25T03:37:27;17.59;95.57
73829;SHT30;62176;48.450;-4.466;2022-08-25T03:39:54;17.59;95.70
73829;SHT30;62176;48.450;-4.466;2022-08-25T03:42:19;17.61;95.93
73829;SHT30;62176;48.450;-4.466;2022-08-25T03:44:45;17.58;95.68
73829;SHT30;62176;48.450;-4.466;2022-08-25T03:47:10;17.59;95.63
73829;SHT30;62176;48.450;-4.466;2022-08-25T03:49:36;17.62;95.79
73829;SHT30;62176;48.450;-4.466;2022-08-25T03:52:02;17.62;95.72
73829;SHT30;62176;48.450;-4.466;2022-08-25T03:54:28;17.64;95.75
73829;SHT30;62176;48.450;-4.466;2022-08-25T03:56:53;17.65;95.68
73829;SHT30;62176;48.450;-4.466;2022-08-25T03:59:19;17.65;95.73
73829;SHT30;62176;48.450;-4.466;2022-08-25T04:01:46;17.67;95.45
73829;SHT30;62176;48.450;-4.466;2022-08-25T04:04:13;17.65;95.16
73829;SHT30;62176;48.450;-4.466;2022-08-25T04:06:40;17.68;95.27
73829;SHT30;62176;48.450;-4.466;2022-08-25T04:09:06;17.69;94.92
73829;SHT30;62176;48.450;-4.466;2022-08-25T04:11:32;17.69;94.97
73829;SHT30;62176;48.450;-4.466;2022-08-25T04:13:58;17.65;94.83
73829;SHT30;62176;48.450;-4.466;2022-08-25T04:16:29;17.64;94.46
73829;SHT30;62176;48.450;-4.466;2022-08-25T04:19:00;17.59;94.01
73829;SHT30;62176;48.450;-4.466;2022-08-25T04:21:26;17.61;94.47
73829;SHT30;62176;48.450;-4.466;2022-08-25T04:23:53;17.59;94.77
73829;SHT30;62176;48.450;-4.466;2022-08-25T04:26:35;17.52;93.49
73829;SHT30;62176;48.450;-4.466;2022-08-25T04:29:03;17.54;94.42
73829;SHT30;62176;48.450;-4.466;2022-08-25T04:31:31;17.49;93.60
73829;SHT30;62176;48.450;-4.466;2022-08-25T04:34:00;17.48;94.09
73829;SHT30;62176;48.450;-4.466;2022-08-25T04:36:26;17.49;94.05
73829;SHT30;62176;48.450;-4.466;2022-08-25T04:38:51;17.47;94.01
73829;SHT30;62176;48.450;-4.466;2022-08-25T04:41:20;17.44;93.35
73829;SHT30;62176;48.450;-4.466;2022-08-25T04:43:45;17.39;93.59
73829;SHT30;62176;48.450;-4.466;2022-08-25T04:46:17;17.41;93.42
73829;SHT30;62176;48.450;-4.466;2022-08-25T04:48:43;17.38;93.00
73829;SHT30;62176;48.450;-4.466;2022-08-25T04:51:11;17.34;93.22
73829;SHT30;62176;48.450;-4.466;2022-08-25T04:53:38;17.32;92.91
73829;SHT30;62176;48.450;-4.466;2022-08-25T04:56:08;17.30;92.65
73829;SHT30;62176;48.450;-4.466;2022-08-25T04:58:35;17.20;91.36
73829;SHT30;62176;48.450;-4.466;2022-08-25T05:01:08;17.17;91.56
73829;SHT30;62176;48.450;-4.466;2022-08-25T05:03:34;17.17;91.52
73829;SHT30;62176;48.450;-4.466;2022-08-25T05:06:01;17.17;90.42
73829;SHT30;62176;48.450;-4.466;2022-08-25T05:08:27;17.14;90.52
73829;SHT30;62176;48.450;-4.466;2022-08-25T05:10:52;17.13;89.84
73829;SHT30;62176;48.450;-4.466;2022-08-25T05:13:19;17.13;89.78
73829;SHT30;62176;48.450;-4.466;2022-08-25T05:15:54;17.08;89.41
73829;SHT30;62176;48.450;-4.466;2022-08-25T05:18:23;17.07;90.01
73829;SHT30;62176;48.450;-4.466;2022-08-25T05:20:50;17.10;90.33
73829;SHT30;62176;48.450;-4.466;2022-08-25T05:23:18;17.08;89.14
73829;SHT30;62176;48.450;-4.466;2022-08-25T05:25:43;17.06;89.85
73829;SHT30;62176;48.450;-4.466;2022-08-25T05:28:09;17.03;89.70
73829;SHT30;62176;48.450;-4.466;2022-08-25T05:30:37;17.03;89.87
73829;SHT30;62176;48.450;-4.466;2022-08-25T05:33:04;17.04;89.12
73829;SHT30;62176;48.450;-4.466;2022-08-25T05:35:29;17.06;89.64
73829;SHT30;62176;48.450;-4.466;2022-08-25T05:37:55;17.04;89.57
73829;SHT30;62176;48.450;-4.466;2022-08-25T05:40:22;17.02;88.98
73829;SHT30;62176;48.450;-4.466;2022-08-25T05:42:47;16.99;88.22
73829;SHT30;62176;48.450;-4.466;2022-08-25T05:45:12;16.97;88.77
73829;SHT30;62176;48.450;-4.466;2022-08-25T05:47:38;16.94;88.37
73829;SHT30;62176;48.450;-4.466;2022-08-25T05:50:05;16.88;88.37
73829;SHT30;62176;48.450;-4.466;2022-08-25T05:52:31;16.91;88.19
73829;SHT30;62176;48.450;-4.466;2022-08-25T05:54:57;16.88;87.87
73829;SHT30;62176;48.450;-4.466;2022-08-25T05:57:22;16.84;87.09
73829;SHT30;62176;48.450;-4.466;2022-08-25T05:59:47;16.83;88.46
73829;SHT30;62176;48.450;-4.466;2022-08-25T06:02:13;16.84;87.76
73829;SHT30;62176;48.450;-4.466;2022-08-25T06:04:57;16.81;87.26
73829;SHT30;62176;48.450;-4.466;2022-08-25T06:07:23;16.79;87.52
73829;SHT30;62176;48.450;-4.466;2022-08-25T06:09:48;16.81;87.61
73829;SHT30;62176;48.450;-4.466;2022-08-25T06:12:14;16.79;87.92
73829;SHT30;62176;48.450;-4.466;2022-08-25T06:14:40;16.79;87.72
73829;SHT30;62176;48.450;-4.466;2022-08-25T06:17:06;16.79;87.35
73829;SHT30;62176;48.450;-4.466;2022-08-25T06:19:32;16.86;87.48
73829;SHT30;62176;48.450;-4.466;2022-08-25T06:21:57;16.80;87.59
73829;SHT30;62176;48.450;-4.466;2022-08-25T06:24:25;16.86;87.86
73829;SHT30;62176;48.450;-4.466;2022-08-25T06:26:51;16.87;86.89
73829;SHT30;62176;48.450;-4.466;2022-08-25T06:29:17;16.84;86.78
73829;SHT30;62176;48.450;-4.466;2022-08-25T06:31:43;16.87;87.62
73829;SHT30;62176;48.450;-4.466;2022-08-25T06:34:10;16.88;86.88
73829;SHT30;62176;48.450;-4.466;2022-08-25T06:36:35;16.94;87.60
73829;SHT30;62176;48.450;-4.466;2022-08-25T06:39:01;16.93;86.64
73829;SHT30;62176;48.450;-4.466;2022-08-25T06:41:26;16.94;86.21
73829;SHT30;62176;48.450;-4.466;2022-08-25T06:43:52;16.96;87.17
73829;SHT30;62176;48.450;-4.466;2022-08-25T06:46:20;16.97;85.99
73829;SHT30;62176;48.450;-4.466;2022-08-25T06:48:47;16.93;86.08
73829;SHT30;62176;48.450;-4.466;2022-08-25T06:51:15;16.96;86.05
73829;SHT30;62176;48.450;-4.466;2022-08-25T06:53:42;16.99;85.88
73829;SHT30;62176;48.450;-4.466;2022-08-25T06:56:09;16.97;86.00
73829;SHT30;62176;48.450;-4.466;2022-08-25T06:58:35;17.03;85.50
73829;SHT30;62176;48.450;-4.466;2022-08-25T07:01:20;17.03;86.32
73829;SHT30;62176;48.450;-4.466;2022-08-25T07:03:48;17.04;85.37
73829;SHT30;62176;48.450;-4.466;2022-08-25T07:06:15;17.08;86.42
73829;SHT30;62176;48.450;-4.466;2022-08-25T07:08:41;17.08;84.82
73829;SHT30;62176;48.450;-4.466;2022-08-25T07:11:11;17.14;84.96
73829;SHT30;62176;48.450;-4.466;2022-08-25T07:13:37;17.18;85.75
73829;SHT30;62176;48.450;-4.466;2022-08-25T07:16:04;17.21;84.50
73829;SHT30;62176;48.450;-4.466;2022-08-25T07:18:30;17.23;84.21
73829;SHT30;62176;48.450;-4.466;2022-08-25T07:20:56;17.28;85.14
73829;SHT30;62176;48.450;-4.466;2022-08-25T07:23:23;17.30;84.35
73829;SHT30;62176;48.450;-4.466;2022-08-25T07:25:49;17.32;84.20
73829;SHT30;62176;48.450;-4.466;2022-08-25T07:28:15;17.35;84.78
73829;SHT30;62176;48.450;-4.466;2022-08-25T07:30:41;17.37;84.32
73829;SHT30;62176;48.450;-4.466;2022-08-25T07:33:07;17.41;83.46
73829;SHT30;62176;48.450;-4.466;2022-08-25T07:35:33;17.47;83.02
73829;SHT30;62176;48.450;-4.466;2022-08-25T07:38:00;17.54;83.51
73829;SHT30;62176;48.450;-4.466;2022-08-25T07:40:28;17.55;83.29
73829;SHT30;62176;48.450;-4.466;2022-08-25T07:42:57;17.58;83.97
73829;SHT30;62176;48.450;-4.466;2022-08-25T07:45:25;17.61;84.33
73829;SHT30;62176;48.450;-4.466;2022-08-25T07:48:03;17.64;81.85
73829;SHT30;62176;48.450;-4.466;2022-08-25T07:50:29;17.67;82.87
73829;SHT30;62176;48.450;-4.466;2022-08-25T07:52:56;17.67;82.44
73829;SHT30;62176;48.450;-4.466;2022-08-25T07:55:23;17.74;83.70
73829;SHT30;62176;48.450;-4.466;2022-08-25T07:57:49;17.75;83.57
73829;SHT30;62176;48.450;-4.466;2022-08-25T08:00:15;17.78;82.73
73829;SHT30;62176;48.450;-4.466;2022-08-25T08:02:43;17.83;82.40
73829;SHT30;62176;48.450;-4.466;2022-08-25T08:05:10;17.85;82.94
73829;SHT30;62176;48.450;-4.466;2022-08-25T08:07:36;17.92;83.25
73829;SHT30;62176;48.450;-4.466;2022-08-25T08:10:03;17.95;81.39
73829;SHT30;62176;48.450;-4.466;2022-08-25T08:12:29;17.95;81.49
73829;SHT30;62176;48.450;-4.466;2022-08-25T08:14:55;18.01;82.09
73829;SHT30;62176;48.450;-4.466;2022-08-25T08:17:20;18.06;82.67
73829;SHT30;62176;48.450;-4.466;2022-08-25T08:19:46;18.10;82.94
73829;SHT30;62176;48.450;-4.466;2022-08-25T08:22:12;18.14;82.39
73829;SHT30;62176;48.450;-4.466;2022-08-25T08:24:40;18.19;81.21
73829;SHT30;62176;48.450;-4.466;2022-08-25T08:27:09;18.26;80.52
73829;SHT30;62176;48.450;-4.466;2022-08-25T08:29:36;18.34;81.30
73829;SHT30;62176;48.450;-4.466;2022-08-25T08:32:06;18.37;81.09
73829;SHT30;62176;48.450;-4.466;2022-08-25T08:34:32;18.46;80.88
73829;SHT30;62176;48.450;-4.466;2022-08-25T08:36:58;18.50;81.80
73829;SHT30;62176;48.450;-4.466;2022-08-25T08:39:29;18.57;80.84
73829;SHT30;62176;48.450;-4.466;2022-08-25T08:45:02;18.61;80.52
73829;SHT30;62176;48.450;-4.466;2022-08-25T08:56:05;18.90;79.26
73829;SHT30;62176;48.450;-4.466;2022-08-25T08:58:46;18.97;79.82
73829;SHT30;62176;48.450;-4.466;2022-08-25T09:01:26;19.04;78.07
73829;SHT30;62176;48.450;-4.466;2022-08-25T09:04:04;19.07;76.69
73829;SHT30;62176;48.450;-4.466;2022-08-25T09:06:50;19.06;75.82
73829;SHT30;62176;48.450;-4.466;2022-08-25T09:09:27;19.06;77.42
73829;SHT30;62176;48.450;-4.466;2022-08-25T09:12:01;19.06;75.79
73829;SHT30;62176;48.450;-4.466;2022-08-25T09:17:46;19.00;74.54
73829;SHT30;62176;48.450;-4.466;2022-08-25T09:23:40;19.04;74.40
73829;SHT30;62176;48.450;-4.466;2022-08-25T09:29:16;19.12;74.79
73829;SHT30;62176;48.450;-4.466;2022-08-25T09:31:43;19.17;73.30
73829;SHT30;62176;48.450;-4.466;2022-08-25T09:34:18;19.19;73.46
73829;SHT30;62176;48.450;-4.466;2022-08-25T09:36:44;19.29;76.16
73829;SHT30;62176;48.450;-4.466;2022-08-25T09:39:13;19.32;71.55
73829;SHT30;62176;48.450;-4.466;2022-08-25T09:41:53;19.36;75.12
73829;SHT30;62176;48.450;-4.466;2022-08-25T09:44:23;19.45;72.51
73829;SHT30;62176;48.450;-4.466;2022-08-25T09:49:34;19.61;73.17
73829;SHT30;62176;48.450;-4.466;2022-08-25T09:52:25;19.72;74.16
73829;SHT30;62176;48.450;-4.466;2022-08-25T09:55:42;19.76;72.93
73829;SHT30;62176;48.450;-4.466;2022-08-25T10:00:32;19.87;72.59
73829;SHT30;62176;48.450;-4.466;2022-08-25T10:06:04;20.06;70.59
73829;SHT30;62176;48.450;-4.466;2022-08-25T10:08:52;20.10;71.17
73829;SHT30;62176;48.450;-4.466;2022-08-25T10:14:07;20.10;69.79
73829;SHT30;62176;48.450;-4.466;2022-08-25T10:16:39;20.09;70.45
73829;SHT30;62176;48.450;-4.466;2022-08-25T10:21:41;20.26;69.54
73829;SHT30;62176;48.450;-4.466;2022-08-25T10:24:09;20.33;68.25
73829;SHT30;62176;48.450;-4.466;2022-08-25T10:32:24;20.51;67.50
73829;SHT30;62176;48.450;-4.466;2022-08-25T10:35:16;20.58;68.63
73829;SHT30;62176;48.450;-4.466;2022-08-25T10:40:35;20.64;70.74
73829;SHT30;62176;48.450;-4.466;2022-08-25T10:45:39;20.70;67.28
73829;SHT30;62176;48.450;-4.466;2022-08-25T10:50:47;20.68;65.22
73829;SHT30;62176;48.450;-4.466;2022-08-25T10:56:16;20.76;67.01
73829;SHT30;62176;48.450;-4.466;2022-08-25T11:01:42;20.95;66.21
73829;SHT30;62176;48.450;-4.466;2022-08-25T11:07:44;21.14;65.22
73829;SHT30;62176;48.450;-4.466;2022-08-25T11:13:37;21.22;66.20
73829;SHT30;62176;48.450;-4.466;2022-08-25T11:19:34;21.41;67.19
73829;SHT30;62176;48.450;-4.466;2022-08-25T11:22:31;21.48;63.15
73829;SHT30;62176;48.450;-4.466;2022-08-25T11:25:13;21.60;64.71
73829;SHT30;62176;48.450;-4.466;2022-08-25T11:30:15;21.75;63.25
73829;SHT30;62176;48.450;-4.466;2022-08-25T11:32:48;21.79;62.50
73829;SHT30;62176;48.450;-4.466;2022-08-25T11:35:25;21.86;62.85
73829;SHT30;62176;48.450;-4.466;2022-08-25T11:38:07;21.88;63.69
73829;SHT30;62176;48.450;-4.466;2022-08-25T11:41:36;21.85;65.23
73829;SHT30;62176;48.450;-4.466;2022-08-25T11:46:25;21.70;62.37
73829;SHT30;62176;48.450;-4.466;2022-08-25T11:51:43;21.66;63.50
73829;SHT30;62176;48.450;-4.466;2022-08-25T11:54:33;21.63;63.92
73829;SHT30;62176;48.450;-4.466;2022-08-25T11:57:20;21.60;64.56
73829;SHT30;62176;48.450;-4.466;2022-08-25T12:05:04;21.62;63.91
73829;SHT30;62176;48.450;-4.466;2022-08-25T12:13:44;21.90;63.73
73829;SHT30;62176;48.450;-4.466;2022-08-25T12:48:53;23.05;56.21
73829;SHT30;62176;48.450;-4.466;2022-08-25T12:51:22;22.99;55.25
73829;SHT30;62176;48.450;-4.466;2022-08-25T12:53:51;23.05;57.94
73829;SHT30;62176;48.450;-4.466;2022-08-25T12:56:40;23.16;56.09
73829;SHT30;62176;48.450;-4.466;2022-08-25T12:59:19;23.19;53.15
73829;SHT30;62176;48.450;-4.466;2022-08-25T13:12:14;23.66;55.86
73829;SHT30;62176;48.450;-4.466;2022-08-25T13:14:43;23.76;50.37
73829;SHT30;62176;48.450;-4.466;2022-08-25T13:17:10;23.70;54.10
73829;SHT30;62176;48.450;-4.466;2022-08-25T13:19:36;23.62;54.27
73829;SHT30;62176;48.450;-4.466;2022-08-25T13:22:12;23.58;53.28
73829;SHT30;62176;48.450;-4.466;2022-08-25T13:24:42;23.63;54.08
73829;SHT30;62176;48.450;-4.466;2022-08-25T13:27:19;23.82;53.23
73829;SHT30;62176;48.450;-4.466;2022-08-25T13:29:52;23.92;52.91
73829;SHT30;62176;48.450;-4.466;2022-08-25T13:32:35;24.06;52.19
73829;SHT30;62176;48.450;-4.466;2022-08-25T13:37:37;24.20;51.72
73829;SHT30;62176;48.450;-4.466;2022-08-25T13:40:27;24.37;50.58
73829;SHT30;62176;48.450;-4.466;2022-08-25T13:43:08;24.47;51.63
73829;SHT30;62176;48.450;-4.466;2022-08-25T13:45:41;24.43;50.22
73829;SHT30;62176;48.450;-4.466;2022-08-25T13:48:08;24.41;51.34
73829;SHT30;62176;48.450;-4.466;2022-08-25T13:50:37;24.27;49.07
73829;SHT30;62176;48.450;-4.466;2022-08-25T13:53:13;24.20;51.15
73829;SHT30;62176;48.450;-4.466;2022-08-25T13:58:17;24.34;51.43
73829;SHT30;62176;48.450;-4.466;2022-08-25T14:00:46;24.48;50.80
73829;SHT30;62176;48.450;-4.466;2022-08-25T14:06:24;24.67;51.94
73829;SHT30;62176;48.450;-4.466;2022-08-25T14:11:40;24.89;51.43
73829;SHT30;62176;48.450;-4.466;2022-08-25T14:14:13;24.92;50.55
73829;SHT30;62176;48.450;-4.466;2022-08-25T14:17:00;24.88;51.05
73829;SHT30;62176;48.450;-4.466;2022-08-25T14:19:27;24.92;51.40
73829;SHT30;62176;48.450;-4.466;2022-08-25T14:21:53;25.01;50.37
73829;SHT30;62176;48.450;-4.466;2022-08-25T14:24:23;25.12;50.14
73829;SHT30;62176;48.450;-4.466;2022-08-25T14:26:49;25.14;50.14
73829;SHT30;62176;48.450;-4.466;2022-08-25T14:29:15;25.23;50.56
73829;SHT30;62176;48.450;-4.466;2022-08-25T14:31:45;25.14;49.66
73829;SHT30;62176;48.450;-4.466;2022-08-25T14:34:20;25.07;49.89
73829;SHT30;62176;48.450;-4.466;2022-08-25T14:36:47;24.99;51.28
73829;SHT30;62176;48.450;-4.466;2022-08-25T14:39:13;24.87;51.75
73829;SHT30;62176;48.450;-4.466;2022-08-25T14:41:41;24.72;51.61
73829;SHT30;62176;48.450;-4.466;2022-08-25T14:44:08;24.79;52.17
73829;SHT30;62176;48.450;-4.466;2022-08-25T14:46:37;24.92;50.84
73829;SHT30;62176;48.450;-4.466;2022-08-25T14:49:11;25.09;50.00
73829;SHT30;62176;48.450;-4.466;2022-08-25T14:51:39;25.18;50.05
73829;SHT30;62176;48.450;-4.466;2022-08-25T14:54:10;25.26;50.93
73829;SHT30;62176;48.450;-4.466;2022-08-25T14:56:37;25.26;50.73
73829;SHT30;62176;48.450;-4.466;2022-08-25T14:59:03;25.15;49.08
73829;SHT30;62176;48.450;-4.466;2022-08-25T15:01:31;24.89;49.87
73829;SHT30;62176;48.450;-4.466;2022-08-25T15:04:07;24.74;49.76
73829;SHT30;62176;48.450;-4.466;2022-08-25T15:06:35;24.79;50.47
73829;SHT30;62176;48.450;-4.466;2022-08-25T15:09:02;24.65;50.12
73829;SHT30;62176;48.450;-4.466;2022-08-25T15:11:43;24.75;51.67
73829;SHT30;62176;48.450;-4.466;2022-08-25T15:14:11;24.87;50.77
73829;SHT30;62176;48.450;-4.466;2022-08-25T15:16:40;24.88;51.62
73829;SHT30;62176;48.450;-4.466;2022-08-25T15:19:11;24.89;50.44
73829;SHT30;62176;48.450;-4.466;2022-08-25T15:21:39;25.07;50.95
73829;SHT30;62176;48.450;-4.466;2022-08-25T15:24:06;25.14;49.73
73829;SHT30;62176;48.450;-4.466;2022-08-25T15:26:39;24.92;50.46
73829;SHT30;62176;48.450;-4.466;2022-08-25T15:29:06;24.84;50.40
73829;SHT30;62176;48.450;-4.466;2022-08-25T15:31:32;24.84;50.41
73829;SHT30;62176;48.450;-4.466;2022-08-25T15:33:57;24.77;49.18
73829;SHT30;62176;48.450;-4.466;2022-08-25T15:36:24;24.74;51.52
73829;SHT30;62176;48.450;-4.466;2022-08-25T15:38:50;24.81;51.09
73829;SHT30;62176;48.450;-4.466;2022-08-25T15:41:15;24.84;51.77
73829;SHT30;62176;48.450;-4.466;2022-08-25T15:43:41;24.95;52.13
73829;SHT30;62176;48.450;-4.466;2022-08-25T15:46:07;24.95;50.11
73829;SHT30;62176;48.450;-4.466;2022-08-25T15:48:34;24.94;50.25
73829;SHT30;62176;48.450;-4.466;2022-08-25T15:51:00;24.89;51.63
73829;SHT30;62176;48.450;-4.466;2022-08-25T15:53:27;24.94;52.53
73829;SHT30;62176;48.450;-4.466;2022-08-25T15:55:54;24.94;52.63
73829;SHT30;62176;48.450;-4.466;2022-08-25T15:58:22;25.05;51.99
73829;SHT30;62176;48.450;-4.466;2022-08-25T16:00:48;25.18;50.93
73829;SHT30;62176;48.450;-4.466;2022-08-25T16:03:13;25.20;50.48
73829;SHT30;62176;48.450;-4.466;2022-08-25T16:05:41;25.25;50.43
73829;SHT30;62176;48.450;-4.466;2022-08-25T16:08:07;25.26;49.59
73829;SHT30;62176;48.450;-4.466;2022-08-25T16:10:34;25.22;50.15
73829;SHT30;62176;48.450;-4.466;2022-08-25T16:12:59;25.32;52.04
73829;SHT30;62176;48.450;-4.466;2022-08-25T16:15:26;25.46;52.30
73829;SHT30;62176;48.450;-4.466;2022-08-25T16:17:52;25.60;50.42
73829;SHT30;62176;48.450;-4.466;2022-08-25T16:20:17;25.66;50.37
73829;SHT30;62176;48.450;-4.466;2022-08-25T16:22:45;25.52;49.92
73829;SHT30;62176;48.450;-4.466;2022-08-25T16:25:13;25.53;49.92
73829;SHT30;62176;48.450;-4.466;2022-08-25T16:27:38;25.53;48.50
73829;SHT30;62176;48.450;-4.466;2022-08-25T16:30:05;25.40;49.97
73829;SHT30;62176;48.450;-4.466;2022-08-25T16:32:30;25.32;49.64
73829;SHT30;62176;48.450;-4.466;2022-08-25T16:34:56;25.45;49.64
73829;SHT30;62176;48.450;-4.466;2022-08-25T16:37:22;25.32;48.88
73829;SHT30;62176;48.450;-4.466;2022-08-25T16:39:51;25.43;51.31
73829;SHT30;62176;48.450;-4.466;2022-08-25T16:42:17;25.43;50.71
73829;SHT30;62176;48.450;-4.466;2022-08-25T16:44:42;25.29;49.57
73829;SHT30;62176;48.450;-4.466;2022-08-25T16:47:07;25.32;50.18
73829;SHT30;62176;48.450;-4.466;2022-08-25T16:49:33;25.36;48.58
73829;SHT30;62176;48.450;-4.466;2022-08-25T16:51:58;25.38;50.18
73829;SHT30;62176;48.450;-4.466;2022-08-25T16:54:25;25.40;50.17
73829;SHT30;62176;48.450;-4.466;2022-08-25T16:57:09;25.52;50.98
73829;SHT30;62176;48.450;-4.466;2022-08-25T16:59:34;25.36;50.43
73829;SHT30;62176;48.450;-4.466;2022-08-25T17:01:59;25.23;49.53
73829;SHT30;62176;48.450;-4.466;2022-08-25T17:04:25;24.95;49.29
73829;SHT30;62176;48.450;-4.466;2022-08-25T17:06:51;24.85;49.49
73829;SHT30;62176;48.450;-4.466;2022-08-25T17:09:16;24.68;49.75
73829;SHT30;62176;48.450;-4.466;2022-08-25T17:11:44;24.67;50.52
73829;SHT30;62176;48.450;-4.466;2022-08-25T17:14:15;24.48;51.82
73829;SHT30;62176;48.450;-4.466;2022-08-25T17:16:41;24.30;48.82
73829;SHT30;62176;48.450;-4.466;2022-08-25T17:19:09;24.14;50.54
73829;SHT30;62176;48.450;-4.466;2022-08-25T17:21:39;24.04;51.11
73829;SHT30;62176;48.450;-4.466;2022-08-25T17:24:05;23.72;51.01
73829;SHT30;62176;48.450;-4.466;2022-08-25T17:26:35;23.63;51.91
73829;SHT30;62176;48.450;-4.466;2022-08-25T17:29:00;23.42;52.56
73829;SHT30;62176;48.450;-4.466;2022-08-25T17:31:27;23.32;52.93
73829;SHT30;62176;48.450;-4.466;2022-08-25T17:33:53;23.23;53.18
73829;SHT30;62176;48.450;-4.466;2022-08-25T17:36:19;23.12;52.92
73829;SHT30;62176;48.450;-4.466;2022-08-25T17:38:44;23.08;54.02
73829;SHT30;62176;48.450;-4.466;2022-08-25T17:41:10;23.07;53.31
73829;SHT30;62176;48.450;-4.466;2022-08-25T17:43:38;22.94;53.37
73829;SHT30;62176;48.450;-4.466;2022-08-25T17:46:04;22.79;53.23
73829;SHT30;62176;48.450;-4.466;2022-08-25T17:48:31;22.74;54.20
73829;SHT30;62176;48.450;-4.466;2022-08-25T17:50:58;22.67;53.83